createdAt,value
2022-08-26T00:01:44.925Z,48.51
2022-08-26T00:04:12.772Z,48.69
2022-08-26T00:06:42.714Z,48.73
2022-08-26T00:09:15.888Z,48.49
2022-08-26T00:11:44.304Z,48.70
2022-08-26T00:14:13.135Z,48.85
2022-08-26T00:16:40.812Z,48.76
2022-08-26T00:19:08.704Z,48.71
2022-08-26T00:21:37.625Z,48.55
2022-08-26T00:24:05.961Z,48.88
2022-08-26T00:26:35.024Z,48.72
2022-08-26T00:29:02.158Z,48.49
2022-08-26T00:31:31.223Z,48.78
2022-08-26T00:33:58.689Z,48.63
2022-08-26T00:36:29.809Z,48.65
2022-08-26T00:38:58.177Z,48.45
2022-08-26T00:41:25.248Z,48.86
2022-08-26T00:43:53.297Z,49.17
2022-08-26T00:46:25.717Z,48.72
2022-08-26T00:48:58.685Z,48.97
2022-08-26T00:51:29.644Z,49.17
2022-08-26T00:54:10.869Z,49.03
2022-08-26T00:56:48.629Z,48.56
2022-08-26T00:59:18.105Z,49.05
2022-08-26T01:01:46.278Z,48.79
2022-08-26T01:04:19.630Z,48.67
2022-08-26T01:06:49.452Z,48.58
2022-08-26T01:09:17.668Z,49.31
2022-08-26T01:11:46.070Z,49.42
2022-08-26T01:14:13.739Z,48.86
2022-08-26T01:16:42.315Z,49.37
2022-08-26T01:19:52.307Z,48.85
2022-08-26T01:22:19.354Z,49.37
2022-08-26T01:24:49.524Z,49.23
2022-08-26T01:27:20.361Z,49.11
2022-08-26T01:29:49.348Z,49.06
2022-08-26T01:32:20.829Z,49.21
2022-08-26T01:34:49.045Z,48.93
2022-08-26T01:37:20.637Z,48.85
2022-08-26T01:39:52.006Z,49.01
2022-08-26T01:42:21.340Z,49.12
2022-08-26T01:44:55.951Z,48.96
2022-08-26T01:47:26.066Z,49.07
2022-08-26T01:49:56.055Z,49.01
2022-08-26T01:52:27.977Z,49.29
2022-08-26T01:54:57.242Z,49.34
2022-08-26T01:57:25.560Z,49.67
2022-08-26T01:59:55.585Z,49.02
2022-08-26T02:02:24.536Z,49.30
2022-08-26T02:04:59.727Z,49.10
2022-08-26T02:07:27.919Z,49.35
2022-08-26T02:09:55.289Z,49.54
2022-08-26T02:12:22.508Z,49.58
2022-08-26T02:14:55.337Z,49.57
2022-08-26T02:17:29.449Z,49.53
2022-08-26T02:19:58.133Z,49.43
2022-08-26T02:22:25.124Z,49.91
2022-08-26T02:24:59.154Z,49.87
2022-08-26T02:27:32.913Z,49.81
2022-08-26T02:30:07.253Z,50.03
2022-08-26T02:32:34.171Z,50.13
2022-08-26T02:35:02.238Z,50.05
2022-08-26T02:37:31.335Z,50.28
2022-08-26T02:39:58.982Z,50.14
2022-08-26T02:42:25.993Z,50.26
2022-08-26T02:44:53.806Z,50.23
2022-08-26T02:47:20.722Z,50.91
2022-08-26T02:49:52.278Z,50.59
2022-08-26T02:52:20.488Z,50.54
2022-08-26T02:54:48.095Z,51.25
2022-08-26T02:57:17.255Z,51.31
2022-08-26T02:59:44.320Z,50.93
2022-08-26T03:02:12.358Z,51.29
2022-08-26T03:04:40.895Z,51.16
2022-08-26T03:07:25.288Z,51.57
2022-08-26T03:09:53.167Z,51.81
2022-08-26T03:12:20.479Z,51.58
2022-08-26T03:14:48.021Z,52.21
2022-08-26T03:17:16.092Z,52.20
2022-08-26T03:19:43.030Z,52.21
2022-08-26T03:22:11.094Z,52.01
2022-08-26T03:24:38.006Z,52.20
2022-08-26T03:27:07.239Z,52.19
2022-08-26T03:29:53.006Z,52.25
2022-08-26T03:32:20.856Z,52.68
2022-08-26T03:34:48.170Z,52.35
2022-08-26T03:37:15.236Z,52.57
2022-08-26T03:39:42.223Z,52.76
2022-08-26T03:42:09.384Z,52.83
2022-08-26T03:44:41.945Z,53.11
2022-08-26T03:47:09.526Z,53.22
2022-08-26T03:49:36.614Z,53.32
2022-08-26T03:52:04.952Z,53.04
2022-08-26T03:54:33.521Z,52.88
2022-08-26T03:57:00.677Z,53.31
2022-08-26T03:59:27.931Z,53.00
2022-08-26T04:01:55.567Z,52.95
2022-08-26T04:04:24.535Z,52.44
2022-08-26T04:06:58.505Z,52.24
2022-08-26T04:09:26.710Z,51.84
2022-08-26T04:11:54.623Z,52.34
2022-08-26T04:14:24.333Z,52.14
2022-08-26T04:16:52.581Z,50.89
2022-08-26T04:19:23.905Z,50.95
2022-08-26T04:21:55.595Z,51.36
2022-08-26T04:24:26.465Z,51.23
2022-08-26T04:26:56.473Z,50.89
2022-08-26T04:29:26.742Z,50.08
2022-08-26T04:31:55.978Z,49.74
2022-08-26T04:34:28.355Z,50.02
2022-08-26T04:36:56.741Z,49.39
2022-08-26T04:39:24.511Z,49.16
2022-08-26T04:41:55.222Z,49.66
2022-08-26T04:44:22.802Z,48.77
2022-08-26T04:46:50.945Z,48.58
2022-08-26T04:49:18.199Z,49.08
2022-08-26T04:51:45.435Z,48.49
2022-08-26T04:54:12.465Z,49.19
2022-08-26T04:56:42.014Z,48.00
2022-08-26T04:59:17.187Z,48.61
2022-08-26T05:01:51.658Z,47.75
2022-08-26T05:04:20.590Z,48.00
2022-08-26T05:06:48.748Z,47.99
2022-08-26T05:09:16.595Z,47.38
2022-08-26T05:11:43.677Z,47.27
2022-08-26T05:14:10.599Z,47.95
2022-08-26T05:16:40.308Z,47.49
2022-08-26T05:19:08.429Z,48.03
2022-08-26T05:21:36.676Z,47.79
2022-08-26T05:24:04.776Z,47.35
2022-08-26T05:26:32.321Z,46.86
2022-08-26T05:28:59.293Z,47.70
2022-08-26T05:31:31.201Z,47.20
2022-08-26T05:33:58.987Z,46.49
2022-08-26T05:36:29.118Z,45.72
2022-08-26T05:38:57.901Z,45.71
2022-08-26T05:41:35.394Z,46.16
2022-08-26T05:44:06.093Z,45.65
2022-08-26T05:46:34.634Z,45.75
2022-08-26T05:49:02.703Z,43.64
2022-08-26T05:51:30.411Z,43.61
2022-08-26T05:53:58.827Z,43.53
2022-08-26T05:56:27.806Z,44.11
2022-08-26T05:58:58.337Z,42.10
2022-08-26T06:01:28.024Z,43.27
2022-08-26T06:04:01.805Z,42.39
2022-08-26T06:06:34.747Z,41.38
2022-08-26T06:09:04.542Z,40.95
2022-08-26T06:11:33.032Z,40.17
2022-08-26T06:14:03.866Z,38.93
2022-08-26T06:16:34.855Z,39.29
2022-08-26T06:19:10.227Z,38.45
2022-08-26T06:21:40.257Z,38.06
2022-08-26T06:24:28.782Z,37.93
2022-08-26T06:26:58.520Z,38.00
2022-08-26T06:29:26.543Z,36.59
2022-08-26T06:31:56.277Z,35.82
2022-08-26T06:34:26.740Z,35.55
2022-08-26T06:36:59.890Z,36.01
2022-08-26T06:39:30.780Z,35.64
2022-08-26T06:42:02.652Z,34.11
2022-08-26T06:44:34.424Z,34.19
2022-08-26T06:47:01.690Z,33.68
2022-08-26T06:49:28.737Z,33.50
2022-08-26T06:51:59.611Z,34.46
2022-08-26T06:54:31.730Z,33.04
2022-08-26T06:56:59.198Z,31.85
2022-08-26T06:59:26.359Z,31.68
2022-08-26T07:01:54.918Z,31.91
2022-08-26T07:04:23.316Z,30.87
2022-08-26T07:06:53.572Z,30.78
2022-08-26T07:09:27.605Z,31.05
2022-08-26T07:11:56.357Z,29.86
2022-08-26T07:14:23.942Z,28.78
2022-08-26T07:16:51.557Z,30.26
2022-08-26T07:19:28.511Z,28.69
2022-08-26T07:22:01.990Z,28.94
2022-08-26T07:24:29.657Z,27.92
2022-08-26T07:27:02.863Z,28.92
2022-08-26T07:29:31.001Z,28.60
2022-08-26T07:31:58.468Z,28.17
2022-08-26T07:34:26.196Z,27.60
2022-08-26T07:36:53.970Z,28.40
2022-08-26T07:39:23.676Z,27.77
2022-08-26T07:41:52.868Z,27.12
2022-08-26T07:44:20.170Z,27.38
2022-08-26T07:46:53.033Z,27.63
2022-08-26T07:49:22.984Z,27.18
2022-08-26T07:51:51.270Z,27.80
2022-08-26T07:54:18.820Z,26.84
2022-08-26T07:56:46.759Z,27.33
2022-08-26T07:59:15.156Z,25.83
2022-08-26T08:01:44.764Z,26.54
2022-08-26T08:04:17.848Z,25.51
2022-08-26T08:06:45.892Z,25.58
2022-08-26T08:09:16.147Z,26.13
2022-08-26T08:11:45.067Z,25.24
2022-08-26T08:14:13.459Z,24.10
2022-08-26T08:16:46.090Z,23.70
2022-08-26T08:19:15.477Z,23.67
2022-08-26T08:21:44.137Z,23.05
2022-08-26T08:24:12.142Z,23.07
2022-08-26T08:26:39.381Z,23.48
2022-08-26T08:29:09.698Z,23.47
2022-08-26T08:34:26.096Z,22.88
2022-08-26T08:36:53.834Z,22.90
2022-08-26T08:39:22.430Z,22.62
2022-08-26T08:41:58.651Z,22.84
2022-08-26T08:47:13.220Z,23.29
2022-08-26T08:49:40.443Z,22.51
2022-08-26T08:52:18.956Z,23.31
2022-08-26T08:54:47.139Z,22.09
2022-08-26T08:57:31.799Z,22.96
2022-08-26T09:00:07.451Z,22.39
2022-08-26T09:03:01.768Z,23.05
2022-08-26T09:05:34.631Z,22.17
2022-08-26T09:08:04.917Z,21.24
2022-08-26T09:10:40.754Z,22.34
2022-08-26T09:13:16.729Z,21.78
2022-08-26T09:16:19.189Z,22.12
2022-08-26T09:18:59.778Z,21.81
2022-08-26T09:21:29.175Z,20.90
2022-08-26T09:23:57.781Z,20.88
2022-08-26T09:26:47.288Z,22.17
2022-08-26T09:29:25.670Z,21.67
2022-08-26T09:32:13.682Z,20.17
2022-08-26T09:35:01.493Z,20.12
2022-08-26T09:37:42.824Z,20.36
2022-08-26T09:40:18.070Z,20.52
2022-08-26T09:42:45.903Z,20.97
2022-08-26T09:45:15.700Z,19.89
2022-08-26T09:47:47.243Z,20.69
2022-08-26T09:50:53.289Z,20.62
2022-08-26T09:53:32.309Z,20.74
2022-08-26T09:56:18.337Z,21.19
2022-08-26T09:58:48.383Z,20.82
2022-08-26T10:01:32.279Z,19.98
2022-08-26T10:04:08.025Z,20.07
2022-08-26T10:06:40.806Z,20.39
2022-08-26T10:09:12.518Z,20.46
2022-08-26T10:11:48.227Z,21.25
2022-08-26T10:14:25.474Z,20.89
2022-08-26T10:17:01.458Z,20.89
2022-08-26T10:19:55.766Z,21.50
2022-08-26T10:22:37.504Z,20.64
2022-08-26T10:25:10.108Z,20.82
2022-08-26T10:27:52.728Z,20.94
2022-08-26T10:30:24.354Z,20.16
2022-08-26T10:33:10.759Z,20.66
2022-08-26T10:35:45.062Z,20.13
2022-08-26T10:38:15.990Z,19.94
2022-08-26T10:40:59.235Z,19.96
2022-08-26T10:43:40.997Z,19.88
2022-08-26T10:46:24.007Z,19.30
2022-08-26T10:49:03.323Z,19.45
2022-08-26T10:51:42.215Z,18.82
2022-08-26T10:54:27.808Z,19.22
2022-08-26T10:57:00.404Z,19.16
2022-08-26T10:59:52.005Z,19.40
2022-08-26T11:02:47.170Z,19.69
2022-08-26T11:05:23.557Z,19.67
2022-08-26T11:08:14.447Z,19.82
2022-08-26T11:10:55.045Z,19.72
2022-08-26T11:13:59.415Z,19.87
2022-08-26T11:16:43.491Z,19.96
2022-08-26T11:19:57.121Z,19.91
2022-08-26T11:22:25.498Z,19.78
2022-08-26T11:24:55.686Z,19.90
2022-08-26T11:27:28.747Z,19.41
2022-08-26T11:30:02.826Z,19.66
2022-08-26T11:32:42.037Z,20.04
2022-08-26T11:35:29.233Z,19.31
2022-08-26T11:38:12.695Z,19.60
2022-08-26T11:40:41.134Z,19.64
2022-08-26T11:43:21.318Z,19.65
2022-08-26T11:46:00.938Z,18.47
2022-08-26T11:48:40.624Z,18.45
2022-08-26T11:51:10.180Z,18.12
2022-08-26T11:53:42.962Z,18.77
2022-08-26T11:56:16.940Z,19.15
2022-08-26T11:58:46.871Z,19.47
2022-08-26T12:01:26.631Z,19.40
2022-08-26T12:03:56.905Z,18.82
2022-08-26T12:06:28.149Z,19.42
2022-08-26T12:09:00.592Z,19.08
2022-08-26T12:11:31.250Z,19.11
2022-08-26T12:14:02.947Z,19.42
2022-08-26T12:16:37.123Z,19.17
2022-08-26T12:19:28.978Z,18.97
2022-08-26T12:22:23.454Z,18.72
2022-08-26T12:25:00.747Z,18.38
2022-08-26T12:27:36.931Z,18.35
2022-08-26T12:30:09.668Z,18.43
2022-08-26T12:32:57.593Z,18.74
2022-08-26T12:35:26.935Z,18.37
2022-08-26T12:37:54.466Z,18.77
2022-08-26T12:40:41.753Z,18.95
2022-08-26T12:43:10.906Z,18.54
2022-08-26T12:46:00.673Z,19.13
2022-08-26T12:48:32.046Z,18.71
2022-08-26T12:51:00.857Z,19.46
2022-08-26T12:53:33.225Z,19.47
2022-08-26T12:56:06.124Z,19.28
2022-08-26T12:58:38.751Z,19.36
2022-08-26T13:01:06.646Z,18.94
2022-08-26T13:03:35.216Z,19.25
2022-08-26T13:06:16.765Z,19.27
2022-08-26T13:08:52.524Z,19.19
2022-08-26T13:11:28.451Z,19.24
2022-08-26T13:14:02.607Z,18.91
2022-08-26T13:16:35.318Z,18.71
2022-08-26T13:19:12.148Z,18.61
2022-08-26T13:21:54.072Z,18.83
2022-08-26T13:24:36.771Z,18.83
2022-08-26T13:27:06.412Z,19.19
2022-08-26T13:29:33.835Z,19.08
2022-08-26T13:32:01.316Z,18.97
2022-08-26T13:34:30.187Z,19.49
2022-08-26T13:36:58.041Z,19.86
2022-08-26T13:39:27.625Z,19.36
2022-08-26T13:41:54.808Z,20.19
2022-08-26T13:44:22.085Z,19.07
2022-08-26T13:46:49.181Z,19.56
2022-08-26T13:49:16.201Z,19.54
2022-08-26T13:51:43.193Z,19.83
2022-08-26T13:54:10.237Z,19.81
2022-08-26T13:56:37.665Z,19.07
2022-08-26T13:59:04.885Z,19.35
2022-08-26T14:01:33.835Z,19.44
2022-08-26T14:04:00.798Z,19.82
2022-08-26T14:06:27.750Z,19.25
2022-08-26T14:08:54.804Z,19.45
2022-08-26T14:11:23.235Z,19.68
2022-08-26T14:13:50.779Z,19.43
2022-08-26T14:16:27.427Z,19.26
2022-08-26T14:18:55.104Z,19.70
2022-08-26T14:21:22.578Z,20.31
2022-08-26T14:23:49.614Z,20.70
2022-08-26T14:26:28.082Z,21.72
2022-08-26T14:29:00.671Z,21.62
2022-08-26T14:31:29.586Z,20.90
2022-08-26T14:34:03.893Z,20.99
2022-08-26T14:36:32.497Z,20.56
2022-08-26T14:39:09.217Z,20.39
2022-08-26T14:41:43.305Z,20.01
2022-08-26T14:44:15.192Z,20.85
2022-08-26T14:46:48.720Z,20.99
2022-08-26T14:49:18.538Z,20.72
2022-08-26T14:51:46.205Z,20.89
2022-08-26T14:54:14.679Z,20.56
2022-08-26T14:56:46.958Z,21.25
2022-08-26T14:59:17.581Z,22.10
2022-08-26T15:01:45.570Z,21.16
2022-08-26T15:04:13.583Z,21.40
2022-08-26T15:06:40.928Z,22.15
2022-08-26T15:09:08.553Z,21.68
2022-08-26T15:11:35.718Z,21.53
2022-08-26T15:14:03.183Z,22.45
2022-08-26T15:16:30.431Z,22.54
2022-08-26T15:18:57.490Z,22.78
2022-08-26T15:21:26.759Z,23.28
2022-08-26T15:23:54.608Z,23.66
2022-08-26T15:26:22.434Z,24.68
2022-08-26T15:28:50.391Z,24.39
2022-08-26T15:31:17.883Z,25.08
2022-08-26T15:33:45.034Z,25.27
2022-08-26T15:36:12.071Z,25.11
2022-08-26T15:38:42.503Z,25.07
2022-08-26T15:41:10.433Z,25.86
2022-08-26T15:43:38.073Z,26.05
2022-08-26T15:46:10.460Z,25.29
2022-08-26T15:48:38.552Z,25.57
2022-08-26T15:51:07.151Z,25.62
2022-08-26T15:53:35.521Z,25.50
2022-08-26T15:56:02.754Z,25.45
2022-08-26T15:58:30.492Z,25.44
2022-08-26T16:00:58.035Z,24.95
2022-08-26T16:03:25.213Z,25.52
2022-08-26T16:05:52.465Z,26.74
2022-08-26T16:08:19.781Z,26.60
2022-08-26T16:10:50.697Z,26.30
2022-08-26T16:13:19.665Z,27.40
2022-08-26T16:15:48.407Z,27.26
2022-08-26T16:18:16.487Z,27.95
2022-08-26T16:21:01.550Z,26.78
2022-08-26T16:23:39.772Z,27.29
2022-08-26T16:26:12.573Z,27.24
2022-08-26T16:28:39.874Z,26.89
2022-08-26T16:31:07.637Z,26.94
2022-08-26T16:33:34.599Z,27.04
2022-08-26T16:36:01.820Z,27.33
2022-08-26T16:38:28.855Z,27.04
2022-08-26T16:40:56.114Z,27.75
2022-08-26T16:43:23.147Z,27.84
2022-08-26T16:45:50.207Z,28.35
2022-08-26T16:48:18.157Z,28.43
2022-08-26T16:50:45.319Z,28.78
2022-08-26T16:55:45.979Z,28.71
2022-08-26T16:58:13.295Z,28.94
2022-08-26T17:00:40.605Z,29.22
2022-08-26T17:03:07.929Z,29.27
2022-08-26T17:05:36.345Z,29.46
2022-08-26T17:08:04.868Z,29.57
2022-08-26T17:10:32.335Z,29.43
2022-08-26T17:12:59.753Z,29.88
2022-08-26T17:15:27.229Z,29.98
2022-08-26T17:17:54.802Z,29.88
2022-08-26T17:20:23.714Z,29.72
2022-08-26T17:22:53.074Z,30.23
2022-08-26T17:25:28.533Z,30.20
2022-08-26T17:30:25.897Z,31.32
2022-08-26T17:32:54.787Z,31.21
2022-08-26T17:35:22.996Z,31.29
2022-08-26T17:37:50.102Z,32.12
2022-08-26T17:40:21.727Z,31.24
2022-08-26T17:42:48.959Z,31.75
2022-08-26T17:45:16.843Z,31.96
2022-08-26T17:47:44.848Z,31.71
2022-08-26T17:50:15.191Z,31.60
2022-08-26T17:52:44.237Z,31.72
2022-08-26T17:55:13.295Z,32.12
2022-08-26T17:57:40.646Z,31.78
2022-08-26T18:00:12.802Z,31.86
2022-08-26T18:02:41.088Z,32.01
2022-08-26T18:05:09.818Z,31.80
2022-08-26T18:07:43.877Z,31.77
2022-08-26T18:10:15.491Z,32.18
2022-08-26T18:12:42.981Z,32.22
2022-08-26T18:15:11.552Z,32.45
2022-08-26T18:17:39.604Z,32.51
2022-08-26T18:20:09.500Z,32.70
2022-08-26T18:22:36.699Z,33.07
2022-08-26T18:25:05.124Z,32.78
2022-08-26T18:27:32.572Z,33.15
2022-08-26T18:30:00.326Z,33.89
2022-08-26T18:32:27.506Z,34.20
2022-08-26T18:34:54.701Z,33.80
2022-08-26T18:37:21.812Z,33.81
2022-08-26T18:39:49.150Z,33.73
2022-08-26T18:42:16.326Z,34.40
2022-08-26T18:44:43.415Z,34.34
2022-08-26T18:47:11.210Z,34.02
2022-08-26T18:56:37.960Z,34.57
2022-08-26T18:59:28.465Z,34.03
2022-08-26T19:01:58.263Z,34.78
2022-08-26T19:04:26.134Z,34.89
2022-08-26T19:10:17.827Z,35.93
2022-08-26T19:12:46.106Z,36.20
2022-08-26T19:15:19.225Z,36.76
2022-08-26T19:17:46.344Z,36.90
2022-08-26T19:20:13.392Z,37.11
2022-08-26T19:22:40.506Z,37.35
2022-08-26T19:25:08.011Z,37.04
2022-08-26T19:27:35.070Z,37.30
2022-08-26T19:30:02.215Z,36.88
2022-08-26T19:32:30.811Z,37.62
2022-08-26T19:34:57.828Z,37.48
2022-08-26T19:37:24.803Z,38.03
2022-08-26T19:39:51.987Z,38.14
2022-08-26T19:42:19.223Z,37.79
2022-08-26T19:45:04.765Z,38.59
2022-08-26T19:47:32.046Z,38.00
2022-08-26T19:49:59.095Z,38.81
2022-08-26T19:52:29.942Z,38.90
2022-08-26T19:54:58.037Z,38.85
2022-08-26T19:57:25.219Z,39.25
2022-08-26T19:59:52.347Z,39.09
2022-08-26T20:02:19.886Z,39.69
2022-08-26T20:04:47.414Z,39.40
2022-08-26T20:07:18.578Z,39.88
2022-08-26T20:09:47.957Z,39.72
2022-08-26T20:12:16.480Z,40.09
2022-08-26T20:14:43.595Z,40.52
2022-08-26T20:17:11.431Z,40.53
2022-08-26T20:19:56.896Z,40.58
2022-08-26T20:22:24.779Z,41.32
2022-08-26T20:24:52.825Z,41.44
2022-08-26T20:27:22.324Z,41.98
2022-08-26T20:29:49.357Z,41.86
2022-08-26T20:32:18.519Z,42.29
2022-08-26T20:34:45.678Z,42.26
2022-08-26T20:37:13.165Z,42.36
2022-08-26T20:39:40.386Z,42.49
2022-08-26T20:42:19.806Z,42.42
2022-08-26T20:44:54.735Z,42.38
2022-08-26T20:47:23.288Z,42.79
2022-08-26T20:49:52.457Z,42.81
2022-08-26T20:52:20.436Z,42.71
2022-08-26T20:54:47.397Z,42.86
2022-08-26T20:57:14.856Z,43.11
2022-08-26T20:59:43.109Z,43.18
2022-08-26T21:02:10.147Z,42.96
2022-08-26T21:04:37.242Z,43.41
2022-08-26T21:07:04.292Z,43.24
2022-08-26T21:09:33.062Z,43.05
2022-08-26T21:12:00.084Z,42.97
2022-08-26T21:14:27.216Z,42.98
2022-08-26T21:16:54.584Z,42.74
2022-08-26T21:19:22.076Z,42.93
2022-08-26T21:21:49.775Z,42.82
2022-08-26T21:24:17.315Z,42.33
2022-08-26T21:26:44.802Z,42.32
2022-08-26T21:29:13.674Z,42.71
2022-08-26T21:31:46.040Z,42.55
2022-08-26T21:34:18.498Z,42.39
2022-08-26T21:36:48.767Z,42.15
2022-08-26T21:39:16.548Z,42.64
2022-08-26T21:41:44.422Z,41.90
2022-08-26T21:44:12.537Z,41.54
2022-08-26T21:46:39.877Z,41.62
2022-08-26T21:49:10.868Z,41.79
2022-08-26T21:51:41.508Z,41.95
2022-08-26T21:54:11.282Z,41.42
2022-08-26T21:56:46.250Z,41.97
2022-08-26T21:59:15.674Z,41.93
2022-08-26T22:01:43.033Z,41.52
2022-08-26T22:04:18.886Z,41.92
2022-08-26T22:06:51.463Z,41.48
2022-08-26T22:09:26.810Z,41.62
2022-08-26T22:11:54.251Z,41.57
2022-08-26T22:14:22.402Z,41.48
2022-08-26T22:16:50.537Z,41.40
2022-08-26T22:19:20.141Z,41.83
2022-08-26T22:21:50.201Z,41.52
2022-08-26T22:24:22.590Z,41.85
2022-08-26T22:26:50.102Z,41.32
2022-08-26T22:29:17.549Z,41.12
2022-08-26T22:31:44.980Z,41.33
2022-08-26T22:34:17.142Z,41.72
2022-08-26T22:36:46.699Z,41.88
2022-08-26T22:39:16.096Z,42.08
2022-08-26T22:41:44.367Z,42.28
2022-08-26T22:44:12.347Z,42.43
2022-08-26T22:46:40.505Z,42.49
2022-08-26T22:49:10.210Z,42.47
2022-08-26T22:51:37.291Z,42.49
2022-08-26T22:54:05.473Z,42.66
2022-08-26T22:56:32.678Z,42.91
2022-08-26T22:58:59.677Z,43.14
2022-08-26T23:01:27.054Z,43.07
2022-08-26T23:03:54.255Z,43.32
2022-08-26T23:06:21.342Z,43.54
2022-08-26T23:08:48.374Z,43.51
2022-08-26T23:11:15.652Z,43.37
2022-08-26T23:13:42.751Z,43.24
2022-08-26T23:16:11.980Z,43.17
2022-08-26T23:18:41.047Z,43.32
2022-08-26T23:21:08.925Z,43.38
2022-08-26T23:23:36.768Z,43.52
2022-08-26T23:26:06.250Z,43.49
2022-08-26T23:28:35.023Z,43.26
2022-08-26T23:31:02.147Z,43.38
2022-08-26T23:33:49.310Z,44.00
2022-08-26T23:36:18.457Z,43.77
2022-08-26T23:38:52.601Z,43.85
2022-08-26T23:41:22.767Z,43.89
2022-08-26T23:43:50.720Z,43.75
2022-08-26T23:46:18.899Z,44.15
2022-08-26T23:48:47.169Z,44.04
2022-08-26T23:51:32.886Z,44.88
2022-08-26T23:54:00.271Z,44.94
2022-08-26T23:56:27.434Z,44.79
2022-08-26T23:58:55.025Z,44.96
